createdAt,value
2018-09-28T00:00:07.092Z,13.94
2018-09-28T00:01:07.115Z,13.88
2018-09-28T00:02:07.277Z,13.88
2018-09-28T00:03:06.953Z,13.88
2018-09-28T00:04:07.065Z,13.81
2018-09-28T00:05:06.905Z,13.81
2018-09-28T00:06:06.887Z,13.81
2018-09-28T00:07:07.208Z,13.81
2018-09-28T00:08:07.112Z,13.81
2018-09-28T00:09:07.058Z,13.81
2018-09-28T00:10:07.130Z,13.81
2018-09-28T00:11:07.114Z,13.81
2018-09-28T00:12:07.169Z,13.81
2018-09-28T00:13:07.158Z,13.75
2018-09-28T00:14:07.040Z,13.75
2018-09-28T00:15:07.203Z,13.75
2018-09-28T00:16:07.065Z,13.75
2018-09-28T00:17:06.909Z,13.69
2018-09-28T00:18:07.115Z,13.69
2018-09-28T00:19:06.868Z,13.75
2018-09-28T00:20:07.248Z,13.69
2018-09-28T00:21:07.072Z,13.69
2018-09-28T00:22:07.221Z,13.69
2018-09-28T00:23:07.392Z,13.69
2018-09-28T00:24:07.083Z,13.69
2018-09-28T00:25:07.068Z,13.75
2018-09-28T00:26:08.302Z,13.75
2018-09-28T00:27:07.102Z,13.69
2018-09-28T00:28:06.926Z,13.69
2018-09-28T00:29:06.861Z,13.69
2018-09-28T00:30:06.869Z,13.75
2018-09-28T00:31:07.013Z,13.69
2018-09-28T00:32:07.000Z,13.69
2018-09-28T00:33:07.101Z,13.69
2018-09-28T00:34:07.419Z,13.69
2018-09-28T00:35:07.159Z,13.69
2018-09-28T00:36:07.013Z,13.75
2018-09-28T00:37:07.066Z,13.69
2018-09-28T00:38:07.288Z,13.69
2018-09-28T00:39:06.959Z,13.62
2018-09-28T00:40:07.405Z,13.69
2018-09-28T00:41:07.185Z,13.62
2018-09-28T00:42:06.923Z,13.69
2018-09-28T00:43:06.900Z,13.69
2018-09-28T00:44:07.108Z,13.69
2018-09-28T00:45:06.869Z,13.69
2018-09-28T00:46:06.956Z,13.69
2018-09-28T00:47:07.025Z,13.69
2018-09-28T00:48:07.127Z,13.62
2018-09-28T00:49:07.128Z,13.62
2018-09-28T00:50:06.901Z,13.69
2018-09-28T00:51:07.040Z,13.69
2018-09-28T00:52:07.101Z,13.69
2018-09-28T00:53:07.237Z,13.62
2018-09-28T00:54:07.033Z,13.69
2018-09-28T00:55:07.193Z,13.62
2018-09-28T00:56:06.945Z,13.62
2018-09-28T00:57:07.196Z,13.62
2018-09-28T00:58:07.111Z,13.62
2018-09-28T00:59:07.119Z,13.62
2018-09-28T01:00:07.002Z,13.56
2018-09-28T01:01:07.014Z,13.56
2018-09-28T01:02:06.965Z,13.56
2018-09-28T01:03:07.020Z,13.56
2018-09-28T01:04:06.831Z,13.5
2018-09-28T01:05:06.984Z,13.5
2018-09-28T01:06:07.025Z,13.5
2018-09-28T01:07:07.197Z,13.5
2018-09-28T01:08:06.808Z,13.5
2018-09-28T01:09:06.818Z,13.5
2018-09-28T01:10:06.797Z,13.5
2018-09-28T01:11:07.033Z,13.5
2018-09-28T01:12:07.043Z,13.5
2018-09-28T01:13:06.971Z,13.5
2018-09-28T01:14:06.952Z,13.5
2018-09-28T01:15:07.349Z,13.44
2018-09-28T01:16:06.782Z,13.44
2018-09-28T01:17:06.851Z,13.44
2018-09-28T01:18:07.000Z,13.38
2018-09-28T01:19:06.792Z,13.38
2018-09-28T01:20:06.975Z,13.31
2018-09-28T01:21:07.001Z,13.31
2018-09-28T01:22:06.822Z,13.31
2018-09-28T01:23:06.928Z,13.25
2018-09-28T01:24:07.164Z,13.25
2018-09-28T01:25:06.967Z,13.25
2018-09-28T01:26:06.790Z,13.25
2018-09-28T01:27:06.941Z,13.25
2018-09-28T01:28:06.834Z,13.25
2018-09-28T01:29:06.951Z,13.25
2018-09-28T01:30:06.763Z,13.25
2018-09-28T01:31:06.956Z,13.19
2018-09-28T01:32:06.943Z,13.19
2018-09-28T01:33:06.768Z,13.19
2018-09-28T01:34:06.945Z,13.25
2018-09-28T01:35:07.006Z,13.19
2018-09-28T01:36:07.224Z,13.19
2018-09-28T01:37:06.950Z,13.19
2018-09-28T01:38:07.109Z,13.19
2018-09-28T01:39:06.816Z,13.19
2018-09-28T01:40:06.773Z,13.19
2018-09-28T01:41:06.789Z,13.19
2018-09-28T01:42:07.353Z,13.13
2018-09-28T01:43:07.000Z,13.19
2018-09-28T01:44:06.993Z,13.13
2018-09-28T01:45:07.163Z,13.13
2018-09-28T01:46:06.791Z,13.06
2018-09-28T01:47:06.952Z,13.06
2018-09-28T01:48:07.172Z,13.06
2018-09-28T01:49:06.862Z,13
2018-09-28T01:50:06.916Z,13.06
2018-09-28T01:51:07.164Z,13.06
2018-09-28T01:52:07.131Z,13.06
2018-09-28T01:53:06.782Z,13.06
2018-09-28T01:54:06.856Z,13
2018-09-28T01:55:06.945Z,13
2018-09-28T01:56:06.758Z,13
2018-09-28T01:57:06.859Z,13
2018-09-28T01:58:06.911Z,13
2018-09-28T01:59:06.778Z,13
2018-09-28T02:00:06.931Z,13
2018-09-28T02:01:06.773Z,13.06
2018-09-28T02:02:07.170Z,13.06
2018-09-28T02:03:06.973Z,13.06
2018-09-28T02:04:07.037Z,13.06
2018-09-28T02:05:07.121Z,13.06
2018-09-28T02:06:07.283Z,13.06
2018-09-28T02:07:07.248Z,13.06
2018-09-28T02:08:06.930Z,13.06
2018-09-28T02:09:07.022Z,13.06
2018-09-28T02:10:06.767Z,13
2018-09-28T02:11:06.973Z,13.06
2018-09-28T02:12:06.708Z,13
2018-09-28T02:13:06.881Z,13
2018-09-28T02:14:07.271Z,13
2018-09-28T02:15:07.108Z,13
2018-09-28T02:16:07.218Z,13
2018-09-28T02:17:06.814Z,13
2018-09-28T02:18:06.785Z,13
2018-09-28T02:19:06.915Z,12.94
2018-09-28T02:20:06.978Z,13
2018-09-28T02:21:07.015Z,13
2018-09-28T02:22:07.139Z,13
2018-09-28T02:23:06.808Z,13
2018-09-28T02:24:06.796Z,13
2018-09-28T02:25:06.756Z,13
2018-09-28T02:26:06.777Z,13
2018-09-28T02:27:06.838Z,13
2018-09-28T02:28:06.794Z,13
2018-09-28T02:29:06.750Z,13
2018-09-28T02:30:06.739Z,13
2018-09-28T02:31:06.980Z,13
2018-09-28T02:32:07.112Z,12.94
2018-09-28T02:33:06.865Z,12.94
2018-09-28T02:34:06.835Z,12.94
2018-09-28T02:35:06.801Z,12.94
2018-09-28T02:36:06.982Z,12.94
2018-09-28T02:37:06.832Z,13
2018-09-28T02:38:06.730Z,12.94
2018-09-28T02:39:07.044Z,13
2018-09-28T02:40:07.153Z,12.94
2018-09-28T02:41:06.907Z,13
2018-09-28T02:42:06.885Z,13
2018-09-28T02:43:06.926Z,13
2018-09-28T02:44:06.879Z,13
2018-09-28T02:45:06.827Z,12.94
2018-09-28T02:46:06.703Z,12.94
2018-09-28T02:47:06.733Z,13
2018-09-28T02:48:06.722Z,12.94
2018-09-28T02:49:06.839Z,12.94
2018-09-28T02:50:06.704Z,12.94
2018-09-28T02:51:06.848Z,12.94
2018-09-28T02:52:06.850Z,12.94
2018-09-28T02:53:07.080Z,12.94
2018-09-28T02:54:06.840Z,12.88
2018-09-28T02:55:06.694Z,12.88
2018-09-28T02:56:06.855Z,12.88
2018-09-28T02:57:07.114Z,12.81
2018-09-28T02:58:06.866Z,12.81
2018-09-28T02:59:06.706Z,12.81
2018-09-28T03:00:06.910Z,12.81
2018-09-28T03:01:06.711Z,12.75
2018-09-28T03:02:06.694Z,12.75
2018-09-28T03:03:06.957Z,12.75
2018-09-28T03:04:06.971Z,12.75
2018-09-28T03:05:06.837Z,12.75
2018-09-28T03:06:07.394Z,12.75
2018-09-28T03:07:06.816Z,12.75
2018-09-28T03:08:06.728Z,12.69
2018-09-28T03:09:06.891Z,12.75
2018-09-28T03:10:06.698Z,12.69
2018-09-28T03:11:07.057Z,12.69
2018-09-28T03:12:06.654Z,12.69
2018-09-28T03:13:06.970Z,12.69
2018-09-28T03:14:06.977Z,12.69
2018-09-28T03:15:06.804Z,12.63
2018-09-28T03:16:06.787Z,12.63
2018-09-28T03:17:06.772Z,12.63
2018-09-28T03:18:06.680Z,12.63
2018-09-28T03:19:06.719Z,12.63
2018-09-28T03:20:06.919Z,12.63
2018-09-28T03:21:06.622Z,12.63
2018-09-28T03:22:06.751Z,12.63
2018-09-28T03:23:06.836Z,12.63
2018-09-28T03:24:06.744Z,12.63
2018-09-28T03:25:06.814Z,12.56
2018-09-28T03:26:06.665Z,12.56
2018-09-28T03:27:06.652Z,12.56
2018-09-28T03:28:06.830Z,12.56
2018-09-28T03:29:06.818Z,12.56
2018-09-28T03:30:06.877Z,12.56
2018-09-28T03:31:06.803Z,12.56
2018-09-28T03:32:06.910Z,12.56
2018-09-28T03:33:06.880Z,12.56
2018-09-28T03:34:06.763Z,12.56
2018-09-28T03:35:06.765Z,12.5
2018-09-28T03:36:06.832Z,12.5
2018-09-28T03:37:06.727Z,12.5
2018-09-28T03:38:06.757Z,12.5
2018-09-28T03:39:06.892Z,12.44
2018-09-28T03:40:06.870Z,12.5
2018-09-28T03:41:06.786Z,12.5
2018-09-28T03:42:06.804Z,12.5
2018-09-28T03:43:06.666Z,12.44
2018-09-28T03:44:07.091Z,12.44
2018-09-28T03:45:06.777Z,12.44
2018-09-28T03:46:06.604Z,12.44
2018-09-28T03:47:06.813Z,12.44
2018-09-28T03:48:06.790Z,12.44
2018-09-28T03:49:06.604Z,12.44
2018-09-28T03:50:06.779Z,12.37
2018-09-28T03:51:06.766Z,12.37
2018-09-28T03:52:06.832Z,12.37
2018-09-28T03:53:06.860Z,12.37
2018-09-28T03:54:06.896Z,12.37
2018-09-28T03:55:06.700Z,12.31
2018-09-28T03:56:06.806Z,12.37
2018-09-28T03:57:06.875Z,12.37
2018-09-28T03:58:06.922Z,12.37
2018-09-28T03:59:06.871Z,12.31
2018-09-28T04:00:06.965Z,12.37
2018-09-28T04:01:06.676Z,12.37
2018-09-28T04:02:06.573Z,12.31
2018-09-28T04:03:06.910Z,12.31
2018-09-28T04:04:07.124Z,12.31
2018-09-28T04:05:06.822Z,12.37
2018-09-28T04:06:06.946Z,12.31
2018-09-28T04:07:06.660Z,12.31
2018-09-28T04:08:06.762Z,12.31
2018-09-28T04:09:06.699Z,12.25
2018-09-28T04:10:06.552Z,12.25
2018-09-28T04:11:06.712Z,12.19
2018-09-28T04:12:06.661Z,12.19
2018-09-28T04:13:06.852Z,12.13
2018-09-28T04:14:06.855Z,12.13
2018-09-28T04:15:07.263Z,12.13
2018-09-28T04:16:06.686Z,12.06
2018-09-28T04:17:06.741Z,12.06
2018-09-28T04:18:06.726Z,12.06
2018-09-28T04:19:06.724Z,12.06
2018-09-28T04:20:06.766Z,12
2018-09-28T04:21:06.709Z,12
2018-09-28T04:22:07.851Z,12
2018-09-28T04:23:06.609Z,11.94
2018-09-28T04:24:06.731Z,11.94
2018-09-28T04:25:06.791Z,11.88
2018-09-28T04:26:06.573Z,11.88
2018-09-28T04:27:06.556Z,11.81
2018-09-28T04:28:06.574Z,11.81
2018-09-28T04:29:06.707Z,11.81
2018-09-28T04:30:06.538Z,11.81
2018-09-28T04:31:06.701Z,11.81
2018-09-28T04:32:06.889Z,11.81
2018-09-28T04:33:06.698Z,11.81
2018-09-28T04:34:06.975Z,11.75
2018-09-28T04:35:06.554Z,11.81
2018-09-28T04:36:06.805Z,11.75
2018-09-28T04:37:06.857Z,11.81
2018-09-28T04:38:06.801Z,11.75
2018-09-28T04:39:06.837Z,11.75
2018-09-28T04:40:06.843Z,11.75
2018-09-28T04:41:08.140Z,11.75
2018-09-28T04:42:06.740Z,11.75
2018-09-28T04:43:06.909Z,11.75
2018-09-28T04:44:06.802Z,11.75
2018-09-28T04:45:07.010Z,11.75
2018-09-28T04:46:06.747Z,11.75
2018-09-28T04:47:06.845Z,11.75
2018-09-28T04:48:06.728Z,11.69
2018-09-28T04:49:09.325Z,11.75
2018-09-28T04:50:06.900Z,11.75
2018-09-28T04:51:06.709Z,11.75
2018-09-28T04:52:06.780Z,11.69
2018-09-28T04:53:43.864Z,11.75
2018-09-28T04:54:06.666Z,11.69
2018-09-28T04:55:07.049Z,11.75
2018-09-28T04:56:06.823Z,11.75
2018-09-28T04:57:07.419Z,11.75
2018-09-28T04:58:06.595Z,11.75
2018-09-28T04:59:06.664Z,11.75
2018-09-28T05:00:06.723Z,11.75
2018-09-28T05:01:06.780Z,11.75
2018-09-28T05:02:06.723Z,11.69
2018-09-28T05:03:06.621Z,11.75
2018-09-28T05:04:06.636Z,11.69
2018-09-28T05:05:06.679Z,11.75
2018-09-28T05:06:06.717Z,11.69
2018-09-28T05:07:06.825Z,11.75
2018-09-28T05:08:06.764Z,11.69
2018-09-28T05:09:07.134Z,11.69
2018-09-28T05:10:06.810Z,11.69
2018-09-28T05:11:06.803Z,11.69
2018-09-28T05:12:06.829Z,11.75
2018-09-28T05:13:07.627Z,11.69
2018-09-28T05:14:06.868Z,11.69
2018-09-28T05:15:06.670Z,11.75
2018-09-28T05:16:06.684Z,11.75
2018-09-28T05:17:06.752Z,11.75
2018-09-28T05:18:06.556Z,11.69
2018-09-28T05:19:06.691Z,11.69
2018-09-28T05:20:06.746Z,11.75
2018-09-28T05:21:06.958Z,11.75
2018-09-28T05:22:07.916Z,11.75
2018-09-28T05:23:06.697Z,11.75
2018-09-28T05:24:06.736Z,11.69
2018-09-28T05:25:06.906Z,11.69
2018-09-28T05:26:06.752Z,11.75
2018-09-28T05:27:07.197Z,11.75
2018-09-28T05:28:06.763Z,11.75
2018-09-28T05:29:06.878Z,11.75
2018-09-28T05:30:06.715Z,11.75
2018-09-28T05:31:07.140Z,11.75
2018-09-28T05:32:07.863Z,11.75
2018-09-28T05:33:07.807Z,11.75
2018-09-28T05:34:06.741Z,11.75
2018-09-28T05:35:06.469Z,11.75
2018-09-28T05:36:06.826Z,11.69
2018-09-28T05:37:06.818Z,11.69
2018-09-28T05:38:06.823Z,11.63
2018-09-28T05:39:06.534Z,11.69
2018-09-28T05:40:06.773Z,11.63
2018-09-28T05:41:06.708Z,11.63
2018-09-28T05:42:06.860Z,11.63
2018-09-28T05:43:06.617Z,11.63
2018-09-28T05:44:06.625Z,11.63
2018-09-28T05:45:06.476Z,11.69
2018-09-28T05:46:06.642Z,11.69
2018-09-28T05:47:06.655Z,11.69
2018-09-28T05:48:06.454Z,11.69
2018-09-28T05:49:06.861Z,11.75
2018-09-28T05:50:06.792Z,11.69
2018-09-28T05:51:06.616Z,11.69
2018-09-28T05:52:06.583Z,11.69
2018-09-28T05:53:06.621Z,11.75
2018-09-28T05:54:06.465Z,11.69
2018-09-28T05:55:06.605Z,11.69
2018-09-28T05:56:06.415Z,11.69
2018-09-28T05:57:06.591Z,11.69
2018-09-28T05:58:06.562Z,11.69
2018-09-28T05:59:06.572Z,11.69
2018-09-28T06:00:07.419Z,11.69
2018-09-28T06:01:06.581Z,11.69
2018-09-28T06:02:06.643Z,11.63
2018-09-28T06:03:06.416Z,11.69
2018-09-28T06:04:06.619Z,11.63
2018-09-28T06:05:06.496Z,11.63
2018-09-28T06:06:06.574Z,11.63
2018-09-28T06:07:06.663Z,11.63
2018-09-28T06:08:06.657Z,11.69
2018-09-28T06:09:06.580Z,11.69
2018-09-28T06:10:06.580Z,11.63
2018-09-28T06:11:06.483Z,11.63
2018-09-28T06:12:06.662Z,11.69
2018-09-28T06:13:06.599Z,11.63
2018-09-28T06:14:06.854Z,11.69
2018-09-28T06:15:06.497Z,11.63
2018-09-28T06:16:06.786Z,11.69
2018-09-28T06:17:06.637Z,11.69
2018-09-28T06:18:06.409Z,11.69
2018-09-28T06:19:06.551Z,11.69
2018-09-28T06:20:06.669Z,11.69
2018-09-28T06:21:06.585Z,11.69
2018-09-28T06:22:06.694Z,11.69
2018-09-28T06:23:06.461Z,11.75
2018-09-28T06:24:07.017Z,11.75
2018-09-28T06:25:06.395Z,11.75
2018-09-28T06:26:06.401Z,11.75
2018-09-28T06:27:06.379Z,11.75
2018-09-28T06:28:06.524Z,11.75
2018-09-28T06:29:06.498Z,11.75
2018-09-28T06:30:07.067Z,11.81
2018-09-28T06:31:06.407Z,11.75
2018-09-28T06:32:06.727Z,11.81
2018-09-28T06:33:06.634Z,11.81
2018-09-28T06:34:06.473Z,11.81
2018-09-28T06:35:06.633Z,11.81
2018-09-28T06:36:07.006Z,11.81
2018-09-28T06:37:06.585Z,11.88
2018-09-28T06:38:06.796Z,11.81
2018-09-28T06:39:06.466Z,11.88
2018-09-28T06:40:06.808Z,11.88
2018-09-28T06:41:06.559Z,11.88
2018-09-28T06:42:07.574Z,11.94
2018-09-28T06:43:07.977Z,11.94
2018-09-28T06:44:06.854Z,11.94
2018-09-28T06:45:06.642Z,11.94
2018-09-28T06:46:06.588Z,12
2018-09-28T06:47:06.658Z,12
2018-09-28T06:48:06.796Z,12
2018-09-28T06:49:06.500Z,12
2018-09-28T06:50:06.546Z,12
2018-09-28T06:51:06.949Z,12
2018-09-28T06:52:06.651Z,12
2018-09-28T06:53:06.388Z,12.06
2018-09-28T06:54:06.690Z,12
2018-09-28T06:55:06.386Z,12.06
2018-09-28T06:56:06.718Z,12.06
2018-09-28T06:57:06.902Z,12.06
2018-09-28T06:58:07.157Z,12.13
2018-09-28T06:59:06.477Z,12.13
2018-09-28T07:00:07.053Z,12.13
2018-09-28T07:01:06.649Z,12.13
2018-09-28T07:02:06.547Z,12.13
2018-09-28T07:03:06.539Z,12.13
2018-09-28T07:04:07.034Z,12.13
2018-09-28T07:05:06.573Z,12.19
2018-09-28T07:06:06.815Z,12.19
2018-09-28T07:07:06.445Z,12.25
2018-09-28T07:08:06.492Z,12.25
2018-09-28T07:09:06.503Z,12.31
2018-09-28T07:10:06.559Z,12.31
2018-09-28T07:11:06.711Z,12.37
2018-09-28T07:12:06.601Z,12.37
2018-09-28T07:13:06.490Z,12.44
2018-09-28T07:14:06.358Z,12.5
2018-09-28T07:15:06.365Z,12.5
2018-09-28T07:16:06.765Z,12.5
2018-09-28T07:17:06.545Z,12.56
2018-09-28T07:18:06.855Z,12.63
2018-09-28T07:19:06.305Z,12.63
2018-09-28T07:20:06.907Z,12.63
2018-09-28T07:21:06.599Z,12.69
2018-09-28T07:22:06.299Z,12.69
2018-09-28T07:23:06.353Z,12.69
2018-09-28T07:24:06.892Z,12.69
2018-09-28T07:25:07.012Z,12.75
2018-09-28T07:26:06.582Z,12.75
2018-09-28T07:27:06.518Z,12.75
2018-09-28T07:28:06.462Z,12.81
2018-09-28T07:29:06.501Z,12.81
2018-09-28T07:30:07.032Z,12.88
2018-09-28T07:31:06.588Z,12.88
2018-09-28T07:32:07.313Z,12.94
2018-09-28T07:33:06.351Z,12.94
2018-09-28T07:34:06.918Z,12.94
2018-09-28T07:35:06.532Z,12.94
2018-09-28T07:36:08.747Z,12.94
2018-09-28T07:37:08.893Z,12.94
2018-09-28T07:38:06.622Z,12.94
2018-09-28T07:39:06.357Z,13
2018-09-28T07:40:06.301Z,13
2018-09-28T07:41:06.338Z,13.06
2018-09-28T07:42:07.022Z,13.13
2018-09-28T07:43:06.455Z,13.06
2018-09-28T07:44:06.309Z,13.19
2018-09-28T07:45:06.585Z,13.19
2018-09-28T07:46:06.344Z,13.19
2018-09-28T07:47:06.839Z,13.19
2018-09-28T07:48:07.097Z,13.25
2018-09-28T07:49:06.947Z,13.31
2018-09-28T07:50:06.549Z,13.31
2018-09-28T07:51:06.812Z,13.31
2018-09-28T07:52:06.310Z,13.31
2018-09-28T07:53:06.524Z,13.31
2018-09-28T07:54:06.631Z,13.38
2018-09-28T07:55:06.507Z,13.38
2018-09-28T07:56:06.478Z,13.38
2018-09-28T07:57:06.529Z,13.38
2018-09-28T07:58:06.733Z,13.44
2018-09-28T07:59:06.440Z,13.44
2018-09-28T08:00:06.537Z,13.44
2018-09-28T08:01:06.401Z,13.44
2018-09-28T08:02:06.342Z,13.5
2018-09-28T08:03:06.269Z,13.5
2018-09-28T08:04:06.395Z,13.56
2018-09-28T08:05:06.475Z,13.62
2018-09-28T08:06:06.410Z,13.69
2018-09-28T08:07:06.416Z,13.75
2018-09-28T08:08:06.667Z,13.75
2018-09-28T08:09:06.472Z,13.75
2018-09-28T08:10:06.495Z,13.75
2018-09-28T08:11:06.267Z,13.75
2018-09-28T08:12:06.466Z,13.81
2018-09-28T08:13:06.234Z,13.88
2018-09-28T08:14:06.459Z,13.88
2018-09-28T08:15:06.488Z,13.94
2018-09-28T08:16:06.280Z,13.94
2018-09-28T08:17:06.559Z,14
2018-09-28T08:18:06.461Z,14
2018-09-28T08:19:06.506Z,14.13
2018-09-28T08:20:06.548Z,14.19
2018-09-28T08:31:24.383Z,14.63
2018-09-28T08:32:24.451Z,14.56
2018-09-28T08:33:24.256Z,14.56
2018-09-28T08:34:24.261Z,14.63
2018-09-28T08:35:24.394Z,14.69
2018-09-28T08:36:24.950Z,14.69
2018-09-28T08:37:24.248Z,14.75
2018-09-28T08:38:24.180Z,14.75
2018-09-28T08:39:24.262Z,14.81
2018-09-28T08:40:24.238Z,14.87
2018-09-28T08:41:24.206Z,14.87
2018-09-28T08:42:24.209Z,14.94
2018-09-28T08:43:24.370Z,14.94
2018-09-28T08:44:24.190Z,15
2018-09-28T08:45:24.200Z,14.94
2018-09-28T08:46:24.293Z,15
2018-09-28T08:47:24.183Z,15.06
2018-09-28T08:48:24.247Z,15.06
2018-09-28T08:49:24.213Z,15.13
2018-09-28T08:50:24.173Z,15.06
2018-09-28T08:51:24.176Z,15.06
2018-09-28T08:52:25.378Z,15.06
2018-09-28T08:53:24.333Z,15.13
2018-09-28T08:54:24.335Z,15.19
2018-09-28T08:55:24.584Z,15.13
2018-09-28T08:56:24.206Z,15.25
2018-09-28T08:58:25.147Z,15.25
2018-09-28T08:59:24.267Z,15.38
2018-09-28T09:00:24.447Z,15.38
2018-09-28T09:01:24.216Z,15.44
2018-09-28T09:02:24.249Z,15.38
2018-09-28T09:03:24.399Z,15.44
2018-09-28T09:04:24.407Z,15.44
2018-09-28T09:05:24.332Z,15.44
2018-09-28T09:06:24.269Z,15.5
2018-09-28T09:07:24.455Z,15.56
2018-09-28T09:08:24.333Z,15.56
2018-09-28T09:09:24.305Z,15.56
2018-09-28T09:10:24.135Z,15.5
2018-09-28T09:11:24.183Z,15.5
2018-09-28T09:12:24.183Z,15.56
2018-09-28T09:13:24.479Z,15.56
2018-09-28T09:14:24.239Z,15.56
2018-09-28T09:15:24.558Z,15.69
2018-09-28T09:16:24.347Z,15.63
2018-09-28T09:17:24.229Z,15.69
2018-09-28T09:18:24.995Z,15.69
2018-09-28T09:19:24.100Z,15.75
2018-09-28T09:20:24.240Z,15.75
2018-09-28T09:21:24.215Z,15.81
2018-09-28T09:22:24.233Z,15.88
2018-09-28T09:23:24.287Z,15.94
2018-09-28T09:24:24.379Z,16
2018-09-28T09:25:24.169Z,16.06
2018-09-28T09:26:24.278Z,16.06
2018-09-28T09:27:24.507Z,16.06
2018-09-28T09:28:24.197Z,16.12
2018-09-28T09:29:24.399Z,16.06
2018-09-28T09:30:24.226Z,16.12
2018-09-28T09:31:24.073Z,16.12
2018-09-28T09:32:24.211Z,16.19
2018-09-28T09:33:24.355Z,16.19
2018-09-28T09:34:24.224Z,16.25
2018-09-28T09:35:24.391Z,16.31
2018-09-28T09:36:24.504Z,16.31
2018-09-28T09:37:24.130Z,16.31
2018-09-28T09:38:24.166Z,16.31
2018-09-28T09:39:24.163Z,16.37
2018-09-28T09:40:24.171Z,16.44
2018-09-28T09:41:24.080Z,16.44
2018-09-28T09:42:25.202Z,16.5
2018-09-28T09:43:24.429Z,16.5
2018-09-28T09:44:24.255Z,16.62
2018-09-28T09:45:24.117Z,16.69
2018-09-28T09:46:24.238Z,16.75
2018-09-28T09:47:24.128Z,16.87
2018-09-28T09:48:24.425Z,16.94
2018-09-28T09:49:24.204Z,17
2018-09-28T09:50:24.202Z,17
2018-09-28T09:51:24.162Z,17
2018-09-28T09:52:24.070Z,17
2018-09-28T09:53:24.159Z,17
2018-09-28T09:54:24.232Z,17.06
2018-09-28T09:55:24.086Z,17.06
2018-09-28T09:56:24.056Z,17.12
2018-09-28T09:57:24.176Z,17.12
2018-09-28T09:58:24.111Z,17.12
2018-09-28T09:59:24.182Z,17.19
2018-09-28T10:00:24.318Z,17.25
2018-09-28T10:01:24.105Z,17.37
2018-09-28T10:02:24.126Z,17.37
2018-09-28T10:03:24.364Z,17.44
2018-09-28T10:04:24.125Z,17.5
2018-09-28T10:05:24.100Z,17.44
2018-09-28T10:06:24.266Z,17.5
2018-09-28T10:07:24.141Z,17.56
2018-09-28T10:08:24.048Z,17.56
2018-09-28T10:09:25.517Z,17.62
2018-09-28T10:10:24.078Z,17.62
2018-09-28T10:11:24.003Z,17.69
2018-09-28T10:12:26.323Z,17.69
2018-09-28T10:13:24.016Z,17.75
2018-09-28T10:14:24.368Z,17.75
2018-09-28T10:15:24.022Z,17.81
2018-09-28T10:16:24.131Z,17.81
2018-09-28T10:17:24.121Z,17.81
2018-09-28T10:18:23.991Z,17.87
2018-09-28T10:19:25.213Z,17.87
2018-09-28T10:20:24.078Z,17.87
2018-09-28T10:21:24.137Z,17.87
2018-09-28T10:22:24.003Z,17.87
2018-09-28T10:23:24.009Z,17.94
2018-09-28T10:24:24.496Z,18
2018-09-28T10:25:24.100Z,18.06
2018-09-28T10:26:24.165Z,18.06
2018-09-28T10:27:25.197Z,18.06
2018-09-28T10:28:24.683Z,18.06
2018-09-28T10:29:24.214Z,18.06
2018-09-28T10:30:24.221Z,18.06
2018-09-28T10:31:24.062Z,18.12
2018-09-28T10:32:24.093Z,18.19
2018-09-28T10:33:24.159Z,18.25
2018-09-28T10:34:24.997Z,18.31
2018-09-28T10:35:24.167Z,18.37
2018-09-28T10:36:24.300Z,18.44
2018-09-28T10:37:24.174Z,18.44
2018-09-28T10:38:24.084Z,18.5
2018-09-28T10:39:24.962Z,18.5
2018-09-28T10:40:25.466Z,18.44
2018-09-28T10:41:24.005Z,18.44
2018-09-28T10:42:24.206Z,18.44
2018-09-28T10:43:24.149Z,18.44
2018-09-28T10:44:24.016Z,18.5
2018-09-28T10:45:25.209Z,18.5
2018-09-28T10:46:24.530Z,18.56
2018-09-28T10:47:24.148Z,18.56
2018-09-28T10:48:24.094Z,18.75
2018-09-28T10:49:24.502Z,18.75
2018-09-28T10:50:24.263Z,18.75
2018-09-28T10:51:24.977Z,18.75
2018-09-28T10:52:26.911Z,18.75
2018-09-28T10:53:24.081Z,18.81
2018-09-28T10:55:03.817Z,19
2018-09-28T10:56:03.694Z,19
2018-09-28T10:57:48.620Z,19.12
2018-09-28T10:58:49.655Z,19.06
2018-09-28T10:59:48.692Z,19
2018-09-28T11:00:48.500Z,19.06
2018-09-28T11:01:49.129Z,19.06
2018-09-28T11:02:48.676Z,19.12
2018-09-28T11:03:51.055Z,19.12
2018-09-28T11:05:48.591Z,19.19
2018-09-28T11:06:49.812Z,19.19
2018-09-28T11:07:48.531Z,19.25
2018-09-28T11:08:48.942Z,19.25
2018-09-28T11:09:51.885Z,19.25
2018-09-28T11:10:49.258Z,19.31
2018-09-28T11:11:48.458Z,19.37
2018-09-28T11:12:48.464Z,19.37
2018-09-28T11:13:48.488Z,19.44
2018-09-28T11:14:48.496Z,19.5
2018-09-28T11:15:51.843Z,19.56
2018-09-28T11:16:48.323Z,19.56
2018-09-28T11:17:48.535Z,19.56
2018-09-28T11:18:49.104Z,19.56
2018-09-28T11:19:48.421Z,19.5
2018-09-28T11:20:48.605Z,19.5
2018-09-28T11:21:49.763Z,19.44
2018-09-28T11:22:48.617Z,19.44
2018-09-28T11:23:48.767Z,19.56
2018-09-28T11:24:48.713Z,19.62
2018-09-28T11:25:48.820Z,19.69
2018-09-28T11:26:48.574Z,19.62
2018-09-28T11:27:49.200Z,19.62
2018-09-28T11:28:48.611Z,19.75
2018-09-28T11:29:48.601Z,19.81
2018-09-28T11:30:48.526Z,19.81
2018-09-28T11:31:48.530Z,19.81
2018-09-28T11:32:48.651Z,19.87
2018-09-28T11:33:49.710Z,20
2018-09-28T11:34:48.566Z,20
2018-09-28T11:35:48.642Z,19.94
2018-09-28T11:36:48.566Z,20
2018-09-28T11:37:48.971Z,20
2018-09-28T11:38:48.420Z,20
2018-09-28T11:39:49.398Z,20
2018-09-28T11:40:48.506Z,20
2018-09-28T11:41:48.641Z,20
2018-09-28T11:42:48.815Z,20.06
2018-09-28T11:43:48.739Z,20.12
2018-09-28T11:44:48.614Z,20.06
2018-09-28T11:45:49.707Z,20.06
2018-09-28T11:46:48.515Z,20.06
2018-09-28T11:47:48.461Z,20
2018-09-28T11:48:48.588Z,20
2018-09-28T11:49:48.474Z,20
2018-09-28T11:50:48.468Z,19.94
2018-09-28T11:51:49.419Z,19.94
2018-09-28T11:52:48.543Z,20
2018-09-28T11:53:48.586Z,20.06
2018-09-28T11:54:48.366Z,20.06
2018-09-28T11:55:48.778Z,20.06
2018-09-28T11:56:48.457Z,20.06
2018-09-28T11:57:48.637Z,20
2018-09-28T11:58:48.622Z,20.06
2018-09-28T11:59:48.394Z,20
2018-09-28T12:00:48.716Z,20
2018-09-28T12:01:48.392Z,20
2018-09-28T12:02:48.368Z,20
2018-09-28T12:03:49.559Z,20.06
2018-09-28T12:04:48.352Z,20.06
2018-09-28T12:05:48.345Z,20.19
2018-09-28T12:06:49.893Z,20.25
2018-09-28T12:07:48.493Z,20.37
2018-09-28T12:08:48.298Z,20.25
2018-09-28T12:09:49.454Z,20.25
2018-09-28T12:10:48.785Z,20.31
2018-09-28T12:11:48.312Z,20.25
2018-09-28T12:12:49.781Z,20.25
2018-09-28T12:13:48.804Z,20.31
2018-09-28T12:14:48.677Z,20.44
2018-09-28T12:15:49.342Z,20.44
2018-09-28T12:16:48.411Z,20.44
2018-09-28T12:17:48.331Z,20.37
2018-09-28T12:18:49.290Z,20.37
2018-09-28T12:19:48.469Z,20.44
2018-09-28T12:20:48.364Z,20.37
2018-09-28T12:21:49.110Z,20.37
2018-09-28T12:22:48.468Z,20.25
2018-09-28T12:23:48.394Z,20.25
2018-09-28T12:24:49.345Z,20.31
2018-09-28T12:25:48.415Z,20.44
2018-09-28T12:26:48.364Z,20.56
2018-09-28T12:27:49.379Z,20.56
2018-09-28T12:28:48.369Z,20.56
2018-09-28T12:29:48.324Z,20.56
2018-09-28T12:30:49.184Z,20.69
2018-09-28T12:31:48.414Z,20.69
2018-09-28T12:32:48.369Z,20.62
2018-09-28T12:33:49.745Z,20.56
2018-09-28T12:34:48.337Z,20.69
2018-09-28T12:35:48.272Z,20.56
2018-09-28T12:36:49.036Z,20.62
2018-09-28T12:37:48.615Z,20.69
2018-09-28T12:38:48.273Z,20.69
2018-09-28T12:39:50.162Z,20.69
2018-09-28T12:40:48.286Z,20.69
2018-09-28T12:41:48.337Z,20.69
2018-09-28T12:42:49.321Z,20.62
2018-09-28T12:43:48.498Z,20.62
2018-09-28T12:44:49.024Z,20.62
2018-09-28T12:45:48.433Z,20.62
2018-09-28T12:46:48.295Z,20.62
2018-09-28T12:47:48.331Z,20.62
2018-09-28T12:48:49.349Z,20.62
2018-09-28T12:49:48.444Z,20.62
2018-09-28T12:50:49.353Z,20.62
2018-09-28T12:51:48.519Z,20.62
2018-09-28T12:52:48.315Z,20.62
2018-09-28T12:53:49.328Z,20.69
2018-09-28T12:54:48.969Z,20.69
2018-09-28T12:55:48.385Z,20.75
2018-09-28T12:56:48.852Z,20.75
2018-09-28T12:57:48.406Z,20.75
2018-09-28T12:58:48.305Z,20.75
2018-09-28T12:59:48.290Z,20.75
2018-09-28T13:00:50.106Z,20.81
2018-09-28T13:01:48.430Z,20.75
2018-09-28T13:02:49.319Z,20.75
2018-09-28T13:03:48.715Z,20.69
2018-09-28T13:04:48.399Z,20.75
2018-09-28T13:05:48.241Z,20.81
2018-09-28T13:06:49.686Z,20.81
2018-09-28T13:07:48.282Z,20.88
2018-09-28T13:08:49.218Z,20.88
2018-09-28T13:09:48.589Z,20.88
2018-09-28T13:10:48.577Z,20.88
2018-09-28T13:11:48.223Z,20.88
2018-09-28T13:12:49.348Z,20.81
2018-09-28T13:13:48.446Z,20.81
2018-09-28T13:14:49.368Z,20.88